Topsail Beach, NC

3:50 PM EDT on May 29, 2015 (GMT -0400)
Bogue McAlf | | Change Station
CLOSE
Current Station
Airport
Location: Swansboro,
Elevation: 23 ft
Nearby Weather Stations

Elev 23 ft 34.69 °N, 77.03 °W | Updated 7 days ago

Clear
Clear
79 °F
Feels Like 79 °F
N
9
Wind Variable Wind from ESE
Gusts mph

Today
High -- | Low -- °F
--% Chance of Precip.
Yesterday
High -- | Low -- °F
Precip. -- in
5:59 AM 8:15 PM
Waxing Gibbous, 85% visible
Pressure 30.18 in
Visibility 10.0 miles
Clouds Scattered Clouds 3000 ft
Mostly Cloudy 15000 ft
Dew Point 66 °F
Humidity 64%
Rainfall 0.00 in
Snow Depth Not available.
UV 6 out of 12
Pollen 6.80 out of 12
Air Quality Not available.
Flu Activity No Activity
METAR KNJM 221657Z 01007KT 10SM SCT030 BKN150 22/10 A3017 RMK SLP220 T02170100

More Conditions Fewer Conditions

Pressure 30.18 in
Visibility 10.0 miles
Clouds Scattered Clouds 3000 ft
Mostly Cloudy 15000 ft
Dew Point 66 °F
Humidity 64%
Rainfall 0.00 in
Snow Depth Not available.
UV 6 out of 12
Pollen 6.80 out of 12
Air Quality Not available.
Flu Activity No Activity
METAR KNJM 221657Z 01007KT 10SM SCT030 BKN150 22/10 A3017 RMK SLP220 T02170100

More Conditions Fewer Conditions

10-Day Weather Forecast

Almanac

Astronomy

May. 29, 2015 Rise Set
Actual Time
Civil Twilight
Nautical Twilight
Astronomical Twilight
Moon
Length of Visible Light
Length of Day
Tomorrow will be .
, % of the Moon is Illuminated

Today's Extremes

State Highs State Lows

Community

WunderPhotos

Upload Photos

1,825,332 photos uploaded!

WunderBlogs® & News

Nearby

Air Quality

  Air Quality AQ Index Pollutant
Not available.

Snow Depth

Station Depth Elevation

Earthquake Activity

City Distance Mag. Time & Date
Minimum magnitude displayed is 2.5.

Coastal Water Temperatures

Place Temperature

Stations

Nearby Weather Stations

Station Location Temp. Windchill Dew Point Humidity Wind Precip. Elev Updated Type